createdAt,value
2023-10-06T00:01:12.414Z,11.68
2023-10-06T00:03:42.661Z,13.15
2023-10-06T00:06:16.979Z,11.40
2023-10-06T00:08:52.560Z,13.90
2023-10-06T00:11:32.517Z,13.60
2023-10-06T00:14:08.345Z,12.32
2023-10-06T00:16:42.259Z,14.80
2023-10-06T00:19:22.537Z,12.65
2023-10-06T00:22:02.525Z,15.30
2023-10-06T00:24:32.585Z,12.45
2023-10-06T00:27:02.341Z,12.90
2023-10-06T00:29:30.598Z,12.70
2023-10-06T00:32:04.733Z,12.60
2023-10-06T00:34:35.032Z,12.40
2023-10-06T00:37:03.864Z,14.20
2023-10-06T00:39:32.122Z,13.05
2023-10-06T00:42:07.898Z,12.73
2023-10-06T00:44:36.494Z,13.27
2023-10-06T00:47:07.398Z,12.30
2023-10-06T00:49:36.200Z,13.55
2023-10-06T00:52:07.663Z,13.07
2023-10-06T00:54:36.273Z,12.82
2023-10-06T00:57:11.385Z,11.80
2023-10-06T00:59:39.868Z,11.35
2023-10-06T01:02:10.367Z,12.80
2023-10-06T01:04:46.142Z,12.85
2023-10-06T01:07:16.839Z,14.25
2023-10-06T01:09:57.839Z,15.15
2023-10-06T01:12:30.675Z,14.00
2023-10-06T01:15:17.239Z,15.82
2023-10-06T01:17:45.897Z,14.35
2023-10-06T01:20:29.389Z,15.73
2023-10-06T01:22:59.127Z,22.23
2023-10-06T01:25:27.988Z,23.98
2023-10-06T01:27:56.111Z,24.38
2023-10-06T01:30:24.240Z,22.17
2023-10-06T01:32:53.074Z,22.48
2023-10-06T01:35:25.453Z,24.52
2023-10-06T01:38:00.844Z,21.00
2023-10-06T01:40:44.881Z,19.92
2023-10-06T01:43:16.384Z,18.50
2023-10-06T01:45:46.112Z,19.75
2023-10-06T01:48:24.373Z,22.23
2023-10-06T01:50:55.584Z,17.60
2023-10-06T01:53:24.326Z,19.15
2023-10-06T01:55:56.263Z,19.02
2023-10-06T01:58:24.505Z,20.10
2023-10-06T02:00:52.670Z,19.15
2023-10-06T02:03:22.789Z,19.92
2023-10-06T02:05:56.065Z,16.55
2023-10-06T02:08:24.907Z,17.45
2023-10-06T02:10:56.566Z,16.50
2023-10-06T02:13:24.860Z,18.65
2023-10-06T02:16:00.058Z,20.60
2023-10-06T02:18:36.965Z,16.75
2023-10-06T02:21:13.326Z,17.83
2023-10-06T02:23:43.021Z,17.52
2023-10-06T02:26:14.076Z,22.70
2023-10-06T02:28:45.609Z,23.25
2023-10-06T02:31:15.155Z,18.73
2023-10-06T02:33:49.184Z,19.02
2023-10-06T02:36:22.674Z,20.00
2023-10-06T02:38:52.053Z,19.80
2023-10-06T02:41:26.983Z,21.00
2023-10-06T02:43:58.862Z,23.88
2023-10-06T02:46:27.503Z,31.15
2023-10-06T02:48:56.320Z,23.40
2023-10-06T02:51:31.308Z,27.73
2023-10-06T02:54:21.686Z,27.10
2023-10-06T02:56:52.087Z,20.20
2023-10-06T02:59:23.513Z,20.95
2023-10-06T03:01:53.797Z,37.42
2023-10-06T03:04:26.570Z,18.10
2023-10-06T03:06:57.123Z,40.35
2023-10-06T03:09:37.709Z,17.75
2023-10-06T03:12:16.753Z,23.30
2023-10-06T03:14:45.146Z,22.02
2023-10-06T03:17:14.872Z,20.05
2023-10-06T03:19:44.613Z,20.80
2023-10-06T03:22:15.265Z,20.65
2023-10-06T03:24:55.056Z,21.42
2023-10-06T03:27:25.179Z,18.48
2023-10-06T03:29:56.267Z,20.23
2023-10-06T03:32:33.640Z,17.08
2023-10-06T03:35:13.331Z,16.80
2023-10-06T03:37:53.367Z,20.40
2023-10-06T03:40:24.780Z,17.60
2023-10-06T03:42:55.061Z,21.55
2023-10-06T03:45:30.325Z,21.25
2023-10-06T03:48:13.117Z,19.92
2023-10-06T03:50:44.664Z,21.83
2023-10-06T03:53:15.862Z,19.08
2023-10-06T03:55:47.373Z,23.13
2023-10-06T03:58:19.556Z,20.10
2023-10-06T04:00:51.004Z,27.90
2023-10-06T04:03:20.580Z,26.13
2023-10-06T04:05:51.227Z,31.50
2023-10-06T04:08:22.514Z,30.90
2023-10-06T04:10:56.087Z,27.25
2023-10-06T04:13:26.246Z,22.25
2023-10-06T04:15:55.566Z,23.42
2023-10-06T04:18:25.665Z,27.65
2023-10-06T04:20:56.191Z,21.92
2023-10-06T04:23:25.244Z,23.38
2023-10-06T04:25:57.584Z,31.33
2023-10-06T04:28:29.574Z,31.35
2023-10-06T04:31:02.202Z,29.25
2023-10-06T04:33:30.926Z,35.53
2023-10-06T04:36:01.641Z,29.75
2023-10-06T04:38:30.915Z,31.42
2023-10-06T04:40:59.229Z,31.35
2023-10-06T04:43:28.698Z,26.38
2023-10-06T04:45:57.230Z,28.65
2023-10-06T04:48:25.483Z,22.23
2023-10-06T04:50:55.134Z,24.77
2023-10-06T04:53:23.894Z,26.83
2023-10-06T04:55:52.602Z,31.33
2023-10-06T04:58:20.821Z,26.08
2023-10-06T05:00:54.436Z,32.22
2023-10-06T05:03:24.088Z,30.83
2023-10-06T05:05:56.842Z,16.65
2023-10-06T05:08:25.919Z,12.38
2023-10-06T05:10:57.089Z,14.75
2023-10-06T05:13:27.878Z,22.67
2023-10-06T05:15:57.526Z,16.50
2023-10-06T05:18:25.794Z,20.42
2023-10-06T05:20:54.311Z,17.45
2023-10-06T05:23:22.505Z,17.55
2023-10-06T05:25:50.696Z,18.40
2023-10-06T05:28:18.900Z,20.75
2023-10-06T05:30:47.351Z,17.55
2023-10-06T05:33:17.346Z,20.42
2023-10-06T05:35:46.717Z,20.67
2023-10-06T05:38:15.408Z,19.17
2023-10-06T05:40:45.537Z,22.65
2023-10-06T05:43:14.073Z,19.67
2023-10-06T05:45:43.073Z,21.80
2023-10-06T05:48:12.539Z,22.42
2023-10-06T05:50:42.691Z,24.10
2023-10-06T05:53:14.079Z,23.85
2023-10-06T05:55:43.501Z,25.70
2023-10-06T05:58:15.694Z,23.90
2023-10-06T06:00:52.478Z,24.15
2023-10-06T06:03:22.666Z,22.77
2023-10-06T06:05:54.052Z,22.42
2023-10-06T06:08:22.610Z,24.67
2023-10-06T06:10:51.051Z,22.83
2023-10-06T06:13:21.102Z,20.73
2023-10-06T06:15:51.129Z,24.52
2023-10-06T06:18:19.407Z,21.98
2023-10-06T06:20:47.584Z,26.40
2023-10-06T06:23:17.395Z,19.48
2023-10-06T06:25:46.500Z,24.08
2023-10-06T06:28:15.949Z,20.75
2023-10-06T06:30:44.292Z,22.40
2023-10-06T06:33:14.846Z,21.02
2023-10-06T06:35:43.985Z,20.15
2023-10-06T06:38:14.231Z,23.15
2023-10-06T06:40:44.760Z,28.17
2023-10-06T06:43:12.942Z,27.17
2023-10-06T06:45:45.285Z,25.73
2023-10-06T06:48:15.044Z,18.25
2023-10-06T06:50:44.419Z,20.83
2023-10-06T06:53:13.505Z,24.98
2023-10-06T06:55:44.369Z,31.30
2023-10-06T06:58:13.355Z,17.88
2023-10-06T07:00:42.312Z,24.38
2023-10-06T07:03:12.499Z,19.33
2023-10-06T07:05:41.458Z,21.10
2023-10-06T07:08:10.216Z,17.83
2023-10-06T07:10:40.448Z,18.77
2023-10-06T07:13:11.958Z,21.02
2023-10-06T07:15:40.550Z,18.55
2023-10-06T07:18:07.894Z,14.80
2023-10-06T07:20:36.139Z,17.80
2023-10-06T07:23:05.706Z,13.27
2023-10-06T07:25:34.056Z,14.43
2023-10-06T07:28:02.660Z,12.45
2023-10-06T07:30:35.951Z,12.95
2023-10-06T07:33:07.036Z,14.85
2023-10-06T07:35:43.125Z,12.90
2023-10-06T07:38:13.317Z,13.60
2023-10-06T07:40:43.491Z,11.95
2023-10-06T07:43:14.069Z,12.85
2023-10-06T07:45:44.260Z,10.43
2023-10-06T07:48:12.533Z,12.25
2023-10-06T07:50:40.718Z,9.02
2023-10-06T07:53:08.822Z,7.68
2023-10-06T07:55:38.230Z,7.00
2023-10-06T07:58:09.545Z,6.20
2023-10-06T08:00:43.154Z,5.68
2023-10-06T08:03:14.010Z,5.57
2023-10-06T08:05:42.254Z,4.03
2023-10-06T08:08:10.443Z,3.78
2023-10-06T08:10:39.270Z,4.70
2023-10-06T08:13:09.119Z,3.67
2023-10-06T08:15:41.946Z,4.72
2023-10-06T08:18:10.233Z,5.00
2023-10-06T08:20:41.295Z,4.63
2023-10-06T08:23:09.510Z,4.07
2023-10-06T08:25:53.356Z,5.15
2023-10-06T08:28:27.342Z,6.07
2023-10-06T08:30:56.078Z,4.72
2023-10-06T08:33:27.230Z,5.25
2023-10-06T08:36:01.530Z,4.50
2023-10-06T08:38:31.166Z,5.03
2023-10-06T08:41:04.914Z,5.15
2023-10-06T08:43:33.779Z,4.68
2023-10-06T08:46:03.899Z,5.50
2023-10-06T08:48:34.459Z,5.13
2023-10-06T08:51:12.147Z,5.07
2023-10-06T08:53:46.321Z,6.03
2023-10-06T08:56:18.638Z,5.25
2023-10-06T08:58:47.114Z,4.65
2023-10-06T09:01:16.165Z,4.50
2023-10-06T09:03:44.414Z,4.35
2023-10-06T09:06:15.384Z,4.82
2023-10-06T09:08:46.148Z,4.13
2023-10-06T09:11:16.215Z,5.05
2023-10-06T09:13:44.500Z,5.05
2023-10-06T09:16:13.343Z,4.93
2023-10-06T09:18:42.527Z,5.28
2023-10-06T09:21:20.322Z,5.30
2023-10-06T09:23:50.533Z,4.68
2023-10-06T09:26:30.827Z,6.22
2023-10-06T09:29:02.750Z,5.47
2023-10-06T09:31:40.403Z,5.50
2023-10-06T09:34:11.759Z,5.53
2023-10-06T09:36:45.998Z,5.43
2023-10-06T09:39:27.353Z,5.60
2023-10-06T09:41:56.698Z,5.57
2023-10-06T09:44:28.981Z,6.45
2023-10-06T09:47:02.433Z,6.72
2023-10-06T09:49:34.032Z,6.10
2023-10-06T09:52:06.926Z,5.43
2023-10-06T09:54:39.774Z,5.63
2023-10-06T09:57:08.935Z,4.57
2023-10-06T09:59:39.444Z,4.88
2023-10-06T10:02:13.007Z,6.10
2023-10-06T10:04:43.241Z,4.40
2023-10-06T10:07:14.064Z,3.45
2023-10-06T10:09:44.863Z,4.03
2023-10-06T10:12:38.852Z,5.18
2023-10-06T10:15:26.539Z,3.60
2023-10-06T10:18:07.119Z,4.05
2023-10-06T10:20:38.167Z,4.40
2023-10-06T10:23:08.129Z,4.00
2023-10-06T10:25:38.297Z,3.60
2023-10-06T10:28:18.519Z,3.70
2023-10-06T10:30:54.945Z,3.30
2023-10-06T10:33:23.680Z,3.50
2023-10-06T10:36:32.491Z,3.88
2023-10-06T10:39:13.992Z,3.35
2023-10-06T10:41:42.963Z,3.42
2023-10-06T10:44:25.225Z,3.38
2023-10-06T10:46:57.589Z,3.47
2023-10-06T10:49:26.978Z,3.63
2023-10-06T10:51:58.612Z,3.45
2023-10-06T10:54:30.715Z,3.25
2023-10-06T10:57:07.317Z,3.85
2023-10-06T11:00:18.637Z,3.28
2023-10-06T11:03:04.454Z,3.00
2023-10-06T11:05:33.627Z,2.83
2023-10-06T11:08:06.960Z,3.00
2023-10-06T11:10:39.303Z,3.05
2023-10-06T11:13:20.142Z,2.55
2023-10-06T11:15:50.161Z,3.70
2023-10-06T11:18:21.771Z,3.38
2023-10-06T11:20:51.155Z,2.40
2023-10-06T11:23:19.438Z,3.25
2023-10-06T11:25:52.509Z,2.75
2023-10-06T11:28:21.178Z,3.05
2023-10-06T11:30:50.753Z,2.92
2023-10-06T11:33:21.431Z,3.03
2023-10-06T11:35:50.107Z,2.47
2023-10-06T11:38:18.700Z,2.47
2023-10-06T11:40:47.300Z,2.47
2023-10-06T11:43:20.081Z,2.80
2023-10-06T11:45:49.680Z,2.33
2023-10-06T11:48:30.663Z,3.42
2023-10-06T11:51:07.368Z,2.90
2023-10-06T11:53:36.571Z,3.42
2023-10-06T11:56:11.196Z,3.42
2023-10-06T11:58:42.652Z,3.15
2023-10-06T12:01:33.837Z,3.17
2023-10-06T12:04:05.920Z,3.88
2023-10-06T12:06:41.120Z,4.82
2023-10-06T12:09:14.010Z,3.60
2023-10-06T12:11:42.726Z,3.80
2023-10-06T12:14:13.042Z,4.03
2023-10-06T12:16:46.075Z,3.67
2023-10-06T12:19:15.000Z,3.55
2023-10-06T12:21:43.271Z,3.58
2023-10-06T12:24:12.875Z,2.72
2023-10-06T12:26:41.460Z,4.00
2023-10-06T12:29:11.253Z,3.78
2023-10-06T12:31:40.700Z,4.20
2023-10-06T12:34:09.500Z,3.13
2023-10-06T12:36:38.034Z,2.83
2023-10-06T12:39:06.639Z,3.00
2023-10-06T12:41:35.046Z,5.20
2023-10-06T12:44:11.218Z,3.63
2023-10-06T12:46:41.409Z,3.53
2023-10-06T12:49:09.918Z,2.60
2023-10-06T12:51:38.501Z,2.90
2023-10-06T12:54:08.500Z,4.25
2023-10-06T12:56:37.152Z,4.68
2023-10-06T12:59:06.122Z,4.13
2023-10-06T13:01:35.511Z,4.05
2023-10-06T13:04:07.086Z,3.72
2023-10-06T13:06:36.857Z,3.28
2023-10-06T13:09:05.614Z,3.55
2023-10-06T13:11:34.041Z,3.67
2023-10-06T13:14:07.117Z,3.55
2023-10-06T13:16:36.130Z,4.18
2023-10-06T13:19:06.173Z,3.65
2023-10-06T13:21:34.476Z,3.38
2023-10-06T13:24:06.515Z,3.30
2023-10-06T13:26:43.188Z,4.72
2023-10-06T13:29:12.593Z,3.95
2023-10-06T13:31:42.016Z,3.90
2023-10-06T13:34:11.946Z,4.32
2023-10-06T13:36:42.400Z,3.53
2023-10-06T13:39:16.845Z,4.07
2023-10-06T13:41:45.467Z,4.88
2023-10-06T13:44:14.560Z,3.97
2023-10-06T13:46:43.059Z,4.03
2023-10-06T13:49:13.586Z,3.70
2023-10-06T13:51:42.918Z,4.10
2023-10-06T13:54:11.318Z,3.72
2023-10-06T13:56:40.097Z,4.10
2023-10-06T13:59:08.494Z,4.93
2023-10-06T14:01:37.090Z,4.70
2023-10-06T14:04:05.790Z,4.60
2023-10-06T14:06:35.617Z,4.38
2023-10-06T14:09:06.932Z,4.25
2023-10-06T14:11:35.419Z,5.05
2023-10-06T14:14:17.385Z,5.03
2023-10-06T14:16:47.466Z,5.70
2023-10-06T14:19:18.030Z,4.43
2023-10-06T14:21:51.786Z,4.43
2023-10-06T14:24:20.154Z,4.68
2023-10-06T14:26:48.335Z,4.72
2023-10-06T14:29:16.610Z,4.47
2023-10-06T14:32:00.051Z,4.20
2023-10-06T14:34:47.807Z,5.30
2023-10-06T14:37:37.368Z,4.90
2023-10-06T14:40:23.771Z,5.93
2023-10-06T14:43:09.743Z,4.87
2023-10-06T14:45:55.371Z,4.90
2023-10-06T14:48:28.527Z,4.90
2023-10-06T14:51:01.822Z,6.22
2023-10-06T14:53:31.595Z,4.80
2023-10-06T14:56:02.087Z,6.45
2023-10-06T14:58:35.773Z,4.88
2023-10-06T15:01:09.535Z,4.30
2023-10-06T15:03:37.862Z,4.50
2023-10-06T15:06:06.962Z,4.45
2023-10-06T15:08:36.786Z,4.55
2023-10-06T15:11:05.262Z,5.50
2023-10-06T15:13:37.734Z,4.18
2023-10-06T15:16:09.314Z,5.35
2023-10-06T15:18:38.391Z,5.18
2023-10-06T15:21:06.811Z,4.03
2023-10-06T15:23:36.619Z,4.85
2023-10-06T15:26:08.013Z,4.20
2023-10-06T15:28:39.448Z,3.63
2023-10-06T15:31:08.102Z,3.35
2023-10-06T15:33:36.528Z,4.43
2023-10-06T15:36:06.825Z,2.85
2023-10-06T15:38:37.076Z,3.42
2023-10-06T15:41:11.830Z,3.80
2023-10-06T15:43:41.304Z,4.30
2023-10-06T15:46:12.504Z,3.75
2023-10-06T15:48:42.186Z,4.25
2023-10-06T15:51:13.750Z,3.33
2023-10-06T15:53:45.920Z,3.72
2023-10-06T15:56:15.868Z,2.72
2023-10-06T15:58:46.302Z,3.70
2023-10-06T16:01:16.110Z,3.63
2023-10-06T16:03:48.786Z,4.50
2023-10-06T16:06:21.923Z,4.18
2023-10-06T16:08:51.787Z,3.78
2023-10-06T16:11:19.999Z,3.67
2023-10-06T16:13:48.170Z,3.55
2023-10-06T16:16:19.089Z,5.63
2023-10-06T16:18:50.199Z,4.50
2023-10-06T16:21:18.955Z,3.58
2023-10-06T16:23:57.441Z,3.85
2023-10-06T16:26:34.954Z,3.72
2023-10-06T16:29:04.763Z,3.65
2023-10-06T16:31:33.804Z,4.25
2023-10-06T16:34:02.611Z,4.03
2023-10-06T16:36:30.967Z,5.22
2023-10-06T16:39:05.482Z,4.00
2023-10-06T16:41:35.267Z,5.38
2023-10-06T16:44:06.816Z,3.47
2023-10-06T16:46:35.126Z,4.75
2023-10-06T16:49:07.619Z,4.20
2023-10-06T16:51:36.103Z,5.10
2023-10-06T16:54:05.808Z,4.05
2023-10-06T16:56:35.506Z,5.07
2023-10-06T16:59:03.772Z,4.68
2023-10-06T17:01:32.164Z,5.05
2023-10-06T17:04:05.819Z,6.13
2023-10-06T17:06:34.641Z,6.03
2023-10-06T17:09:03.647Z,5.05
2023-10-06T17:11:32.164Z,4.70
2023-10-06T17:14:01.874Z,4.05
2023-10-06T17:16:30.509Z,7.10
2023-10-06T17:18:59.016Z,6.85
2023-10-06T17:21:27.900Z,7.32
2023-10-06T17:23:56.242Z,8.68
2023-10-06T17:26:24.856Z,10.57
2023-10-06T17:28:53.293Z,14.88
2023-10-06T17:31:22.904Z,9.32
2023-10-06T17:33:53.156Z,7.68
2023-10-06T17:36:21.321Z,5.88
2023-10-06T17:38:49.548Z,7.38
2023-10-06T17:41:18.064Z,6.53
2023-10-06T17:43:47.929Z,6.00
2023-10-06T17:46:17.400Z,17.88
2023-10-06T17:48:48.345Z,38.35
2023-10-06T17:51:20.143Z,24.38
2023-10-06T17:53:49.637Z,7.40
2023-10-06T17:56:19.076Z,6.35
2023-10-06T17:58:48.743Z,4.70
2023-10-06T18:01:17.832Z,7.85
2023-10-06T18:03:49.142Z,7.47
2023-10-06T18:06:18.672Z,8.15
2023-10-06T18:08:49.757Z,10.30
2023-10-06T18:11:18.259Z,5.60
2023-10-06T18:13:47.449Z,5.80
2023-10-06T18:16:15.933Z,5.00
2023-10-06T18:18:44.356Z,5.85
2023-10-06T18:21:14.825Z,5.10
2023-10-06T18:23:43.320Z,5.15
2023-10-06T18:26:20.187Z,5.93
2023-10-06T18:28:48.554Z,5.97
2023-10-06T18:31:16.868Z,5.53
2023-10-06T18:33:46.614Z,5.70
2023-10-06T18:36:16.276Z,5.57
2023-10-06T18:38:45.169Z,5.60
2023-10-06T18:41:14.644Z,6.18
2023-10-06T18:43:43.585Z,6.20
2023-10-06T18:46:12.025Z,7.32
2023-10-06T18:48:41.428Z,6.90
2023-10-06T18:51:09.941Z,5.65
2023-10-06T18:53:39.585Z,5.78
2023-10-06T18:56:07.727Z,6.57
2023-10-06T18:58:37.545Z,7.38
2023-10-06T19:01:07.360Z,6.35
2023-10-06T19:03:37.566Z,8.73
2023-10-06T19:06:07.981Z,6.63
2023-10-06T19:08:40.869Z,7.80
2023-10-06T19:11:13.496Z,6.78
2023-10-06T19:13:41.810Z,6.03
2023-10-06T19:16:12.025Z,7.28
2023-10-06T19:21:39.230Z,5.90
2023-10-06T19:24:09.977Z,6.80
2023-10-06T19:26:39.641Z,5.80
2023-10-06T19:29:08.622Z,5.78
2023-10-06T19:31:37.538Z,7.60
2023-10-06T19:34:06.231Z,6.22
2023-10-06T19:36:35.585Z,6.63
2023-10-06T19:39:05.264Z,6.10
2023-10-06T19:41:33.850Z,7.50
2023-10-06T19:44:03.993Z,8.45
2023-10-06T19:46:32.644Z,7.30
2023-10-06T19:49:01.283Z,9.45
2023-10-06T19:51:30.000Z,10.63
2023-10-06T19:53:58.735Z,8.95
2023-10-06T19:56:27.066Z,8.70
2023-10-06T19:58:56.255Z,8.60
2023-10-06T20:01:26.224Z,8.13
2023-10-06T20:03:54.668Z,22.75
2023-10-06T20:06:22.910Z,13.13
2023-10-06T20:08:51.067Z,26.73
2023-10-06T20:11:20.652Z,33.67
2023-10-06T20:13:49.339Z,54.80
2023-10-06T20:16:17.816Z,40.10
2023-10-06T20:18:48.000Z,20.90
2023-10-06T20:21:18.997Z,22.80
2023-10-06T20:23:51.181Z,13.88
2023-10-06T20:26:19.589Z,10.73
2023-10-06T20:28:47.799Z,11.27
2023-10-06T20:31:16.104Z,8.32
2023-10-06T20:33:44.427Z,9.20
2023-10-06T20:36:14.040Z,8.60
2023-10-06T20:38:42.465Z,8.45
2023-10-06T20:41:10.670Z,9.45
2023-10-06T20:43:39.976Z,10.85
2023-10-06T20:46:09.923Z,10.20
2023-10-06T20:48:38.510Z,11.25
2023-10-06T20:51:08.002Z,13.35
2023-10-06T20:53:38.049Z,11.25
2023-10-06T20:56:07.943Z,9.30
2023-10-06T20:58:36.448Z,9.73
2023-10-06T21:01:08.188Z,9.00
2023-10-06T21:03:36.833Z,10.35
2023-10-06T21:06:05.593Z,10.30
2023-10-06T21:08:33.819Z,9.48
2023-10-06T21:11:03.581Z,9.57
2023-10-06T21:13:31.965Z,9.40
2023-10-06T21:16:00.450Z,12.10
2023-10-06T21:18:29.119Z,10.85
2023-10-06T21:20:57.336Z,11.05
2023-10-06T21:23:26.675Z,9.50
2023-10-06T21:25:55.200Z,8.35
2023-10-06T21:28:24.806Z,10.05
2023-10-06T21:30:53.007Z,10.10
2023-10-06T21:33:21.261Z,10.88
2023-10-06T21:35:49.411Z,9.57
2023-10-06T21:38:17.626Z,9.40
2023-10-06T21:40:48.062Z,11.25
2023-10-06T21:43:16.879Z,10.80
2023-10-06T21:45:47.127Z,8.77
2023-10-06T21:48:16.748Z,9.57
2023-10-06T21:50:48.905Z,10.35
2023-10-06T21:53:17.580Z,9.27
2023-10-06T21:55:46.327Z,9.00
2023-10-06T21:58:14.565Z,8.85
2023-10-06T22:00:45.197Z,11.50
2023-10-06T22:03:15.263Z,11.10
2023-10-06T22:05:43.631Z,9.90
2023-10-06T22:08:12.483Z,11.40
2023-10-06T22:10:40.898Z,11.88
2023-10-06T22:13:09.283Z,10.05
2023-10-06T22:15:37.932Z,10.88
2023-10-06T22:18:07.237Z,10.82
2023-10-06T22:20:36.964Z,10.65
2023-10-06T22:23:06.708Z,11.63
2023-10-06T22:25:38.212Z,10.90
2023-10-06T22:28:07.341Z,12.15
2023-10-06T22:30:37.895Z,14.57
2023-10-06T22:33:06.971Z,14.60
2023-10-06T22:35:36.647Z,13.10
2023-10-06T22:38:05.449Z,15.45
2023-10-06T22:40:34.598Z,14.88
2023-10-06T22:43:03.463Z,13.73
2023-10-06T22:45:31.658Z,17.15
2023-10-06T22:48:01.655Z,14.27
2023-10-06T22:50:29.926Z,12.20
2023-10-06T22:53:00.496Z,11.85
2023-10-06T22:55:30.426Z,14.02
2023-10-06T22:57:59.061Z,18.40
2023-10-06T23:00:29.962Z,15.68
2023-10-06T23:02:58.837Z,17.17
2023-10-06T23:05:27.557Z,15.35
2023-10-06T23:07:55.878Z,13.60
2023-10-06T23:10:27.693Z,13.05
2023-10-06T23:12:56.926Z,15.73
2023-10-06T23:15:29.804Z,12.27
2023-10-06T23:17:58.068Z,12.10
2023-10-06T23:20:26.410Z,12.52
2023-10-06T23:22:59.688Z,14.52
2023-10-06T23:25:37.562Z,13.00
2023-10-06T23:28:08.671Z,11.75
2023-10-06T23:30:38.073Z,11.88
2023-10-06T23:33:07.554Z,12.60
2023-10-06T23:35:36.202Z,12.15
2023-10-06T23:38:07.795Z,12.18
2023-10-06T23:40:43.456Z,17.95
2023-10-06T23:43:12.182Z,16.63
2023-10-06T23:45:43.985Z,18.52
2023-10-06T23:48:12.711Z,19.80
2023-10-06T23:50:52.897Z,21.33
2023-10-06T23:53:28.995Z,22.33
2023-10-06T23:56:01.670Z,22.80
2023-10-06T23:58:34.461Z,21.42
